Time;durP1;ratioP1;P1;durP2;ratioP2;P2;SDS_P1;SDS_P2;PMS_P1;PMS_P2;Temp;Humidity;BMP_temperature;BMP_pressure;BME280_temperature;BME280_humidity;BME280_pressure;Samples;Min_cycle;Max_cycle;Signal;HPM_P1;HPM_P2
2022/12/19 00:00:03;;;;;;;2.07;1.30;;;;;;;;;;5038467;27;92140;-54
2022/12/19 00:02:34;;;;;;;2.10;1.60;;;;;;;;;;5038069;27;95017;-54
2022/12/19 00:05:03;;;;;;;4.87;1.57;;;;;;;;;;5038643;27;93699;-54
2022/12/19 00:07:31;;;;;;;2.03;1.30;;;;;;;;;;5050652;27;91988;-54
2022/12/19 00:10:01;;;;;;;2.03;1.20;;;;;;;;;;5060949;27;92133;-54
2022/12/19 00:12:29;;;;;;;2.93;1.93;;;;;;;;;;5062173;27;94073;-55
2022/12/19 00:14:57;;;;;;;1.73;1.43;;;;;;;;;;5049713;27;92954;-54
2022/12/19 00:17:28;;;;;;;1.70;1.33;;;;;;;;;;5054423;27;92009;-54
2022/12/19 00:19:57;;;;;;;1.53;1.10;;;;;;;;;;5061125;27;91234;-54
2022/12/19 00:22:25;;;;;;;4.13;1.57;;;;;;;;;;5051293;27;94168;-54
2022/12/19 00:24:53;;;;;;;2.23;1.30;;;;;;;;;;5043142;27;93854;-54
2022/12/19 00:27:23;;;;;;;2.07;1.50;;;;;;;;;;5059612;27;92993;-54
2022/12/19 00:29:51;;;;;;;1.97;1.30;;;;;;;;;;5045554;27;92068;-54
2022/12/19 00:32:19;;;;;;;2.20;1.47;;;;;;;;;;5054342;27;93972;-54
2022/12/19 00:34:48;;;;;;;1.23;1.13;;;;;;;;;;5046924;27;92902;-55
2022/12/19 00:37:16;;;;;;;2.07;1.27;;;;;;;;;;5053909;27;92022;-55
2022/12/19 00:39:44;;;;;;;1.37;1.23;;;;;;;;;;5042233;27;92758;-54
2022/12/19 00:42:12;;;;;;;2.20;1.50;;;;;;;;;;5043697;27;92862;-54
2022/12/19 00:44:42;;;;;;;5.70;1.73;;;;;;;;;;5044290;27;93922;-55
2022/12/19 00:47:10;;;;;;;3.00;1.60;;;;;;;;;;5042216;27;92009;-55
2022/12/19 00:49:39;;;;;;;1.47;1.13;;;;;;;;;;5041885;27;92130;-54
2022/12/19 00:52:09;;;;;;;1.20;1.00;;;;;;;;;;5048673;27;95003;-54
2022/12/19 00:54:37;;;;;;;2.00;1.40;;;;;;;;;;5060775;27;93934;-54
2022/12/19 00:57:05;;;;;;;1.17;1.07;;;;;;;;;;5057156;27;92006;-54
2022/12/19 00:59:34;;;;;;;2.03;1.40;;;;;;;;;;5046878;27;92008;-54
2022/12/19 01:02:03;;;;;;;1.80;1.10;;;;;;;;;;5058379;27;92920;-54
2022/12/19 01:04:32;;;;;;;1.77;0.97;;;;;;;;;;5061716;27;93550;-54
2022/12/19 01:07:07;;;;;;;1.93;1.10;;;;;;;;;;5057716;27;92110;-54
2022/12/19 01:09:35;;;;;;;1.47;1.10;;;;;;;;;;5042033;27;91333;-54
2022/12/19 01:14:52;;;;;;;3.37;1.30;;;;;;;;;;5059750;27;92756;-54
2022/12/19 01:17:24;;;;;;;2.00;1.63;;;;;;;;;;5041687;27;92967;-55
2022/12/19 01:19:52;;;;;;;1.67;1.17;;;;;;;;;;5053174;27;92165;-54
2022/12/19 01:22:21;;;;;;;2.33;1.70;;;;;;;;;;5048413;27;94108;-54
2022/12/19 01:24:49;;;;;;;1.83;1.20;;;;;;;;;;5042212;27;94021;-54
2022/12/19 01:27:17;;;;;;;1.00;1.00;;;;;;;;;;5057515;27;92736;-54
2022/12/19 01:29:45;;;;;;;2.10;1.70;;;;;;;;;;5061023;27;91987;-54
2022/12/19 01:32:20;;;;;;;1.40;1.30;;;;;;;;;;5052772;27;93121;-54
2022/12/19 01:34:49;;;;;;;1.77;1.20;;;;;;;;;;5056884;27;92824;-54
2022/12/19 01:37:18;;;;;;;1.63;1.13;;;;;;;;;;5061416;27;92024;-55
2022/12/19 01:39:46;;;;;;;2.20;1.53;;;;;;;;;;5058035;27;92221;-54
2022/12/19 01:42:15;;;;;;;1.07;0.60;;;;;;;;;;5042631;27;94063;-55
2022/12/19 01:45:06;;;;;;;1.50;1.00;;;;;;;;;;5054692;27;94818;-55
2022/12/19 01:47:35;;;;;;;2.43;1.23;;;;;;;;;;5050052;27;92141;-54
2022/12/19 01:50:05;;;;;;;1.30;1.20;;;;;;;;;;5060067;27;92134;-54
2022/12/19 01:52:33;;;;;;;1.83;1.20;;;;;;;;;;5060295;27;94229;-54
2022/12/19 01:55:01;;;;;;;1.67;1.57;;;;;;;;;;5041123;27;92813;-54
2022/12/19 01:57:29;;;;;;;3.57;1.80;;;;;;;;;;5040657;27;92034;-54
2022/12/19 01:59:59;;;;;;;1.33;1.23;;;;;;;;;;5041072;27;91340;-55
2022/12/19 02:02:29;;;;;;;1.67;1.20;;;;;;;;;;5040559;27;94035;-54
2022/12/19 02:04:57;;;;;;;1.43;1.13;;;;;;;;;;5040751;27;92709;-54
2022/12/19 02:07:27;;;;;;;1.03;0.93;;;;;;;;;;5040841;27;93019;-55
2022/12/19 02:09:56;;;;;;;1.73;1.30;;;;;;;;;;5040196;27;92047;-54
2022/12/19 02:12:26;;;;;;;0.93;0.87;;;;;;;;;;5039947;27;94132;-54
2022/12/19 02:14:54;;;;;;;0.80;0.80;;;;;;;;;;5055441;27;94745;-55
2022/12/19 02:17:32;;;;;;;1.33;1.10;;;;;;;;;;5061136;27;92092;-54
2022/12/19 02:20:06;;;;;;;1.73;1.23;;;;;;;;;;5040771;27;92701;-54
2022/12/19 02:22:38;;;;;;;0.67;0.67;;;;;;;;;;5040744;27;94113;-54
2022/12/19 02:25:24;;;;;;;1.60;1.27;;;;;;;;;;5049153;27;92988;-55
2022/12/19 02:27:55;;;;;;;1.77;1.10;;;;;;;;;;5054630;27;92039;-55
2022/12/19 02:30:36;;;;;;;1.23;1.13;;;;;;;;;;5059663;27;92042;-54
2022/12/19 02:33:07;;;;;;;2.33;1.20;;;;;;;;;;5057670;27;95072;-54
2022/12/19 02:35:37;;;;;;;1.77;1.00;;;;;;;;;;5047792;27;94814;-54
2022/12/19 02:38:08;;;;;;;1.00;0.87;;;;;;;;;;5044791;27;92102;-54
2022/12/19 02:40:40;;;;;;;1.30;1.07;;;;;;;;;;5056261;27;92065;-54
2022/12/19 02:43:09;;;;;;;1.80;1.13;;;;;;;;;;5058558;27;93299;-54
2022/12/19 02:45:38;;;;;;;1.13;1.03;;;;;;;;;;5060573;27;94039;-54
2022/12/19 02:48:07;;;;;;;1.27;1.10;;;;;;;;;;5059742;27;92133;-54
2022/12/19 02:50:37;;;;;;;2.23;1.30;;;;;;;;;;5059668;27;91316;-54
2022/12/19 02:53:05;;;;;;;2.40;1.03;;;;;;;;;;5054787;27;94225;-55
2022/12/19 02:55:34;;;;;;;1.57;0.87;;;;;;;;;;5047961;27;92848;-55
2022/12/19 02:58:09;;;;;;;1.90;1.30;;;;;;;;;;5049664;27;92937;-54
2022/12/19 03:00:40;;;;;;;1.20;1.10;;;;;;;;;;5055157;27;91817;-55
2022/12/19 03:03:10;;;;;;;1.00;0.90;;;;;;;;;;5058471;27;94179;-55
2022/12/19 03:05:42;;;;;;;1.20;0.87;;;;;;;;;;5057959;27;92824;-54
2022/12/19 03:08:12;;;;;;;1.00;0.77;;;;;;;;;;5059972;27;92829;-55
2022/12/19 03:10:41;;;;;;;0.90;0.83;;;;;;;;;;5058512;27;92066;-54
2022/12/19 03:13:10;;;;;;;1.30;0.97;;;;;;;;;;5047174;27;92931;-54
2022/12/19 03:15:40;;;;;;;2.60;1.10;;;;;;;;;;5052706;27;92715;-55
2022/12/19 03:18:08;;;;;;;1.10;1.00;;;;;;;;;;5043779;27;92023;-55
2022/12/19 03:20:40;;;;;;;1.53;0.90;;;;;;;;;;5037910;27;92411;-55
2022/12/19 03:23:08;;;;;;;1.27;1.17;;;;;;;;;;5053317;27;96689;-54
2022/12/19 03:25:36;;;;;;;0.93;0.87;;;;;;;;;;5048180;27;94984;-55
2022/12/19 03:28:06;;;;;;;1.33;1.23;;;;;;;;;;5050046;27;92046;-55
2022/12/19 03:30:34;;;;;;;1.97;1.33;;;;;;;;;;5039933;27;92132;-54
2022/12/19 03:33:04;;;;;;;2.10;1.00;;;;;;;;;;5039329;27;94152;-55
2022/12/19 03:35:32;;;;;;;3.13;1.20;;;;;;;;;;5039365;27;93690;-54
2022/12/19 03:38:02;;;;;;;1.97;1.07;;;;;;;;;;5039620;27;92008;-54
2022/12/19 03:40:30;;;;;;;1.43;1.10;;;;;;;;;;5039748;27;91334;-55
2022/12/19 03:43:08;;;;;;;1.77;0.97;;;;;;;;;;5038081;27;93129;-54
2022/12/19 03:45:44;;;;;;;1.40;1.00;;;;;;;;;;5038987;27;92683;-54
2022/12/19 03:48:15;;;;;;;3.37;0.73;;;;;;;;;;5038686;27;92902;-54
2022/12/19 03:50:45;;;;;;;0.80;0.80;;;;;;;;;;5038965;27;92105;-55
2022/12/19 03:53:16;;;;;;;1.73;1.07;;;;;;;;;;5055997;27;93845;-54
2022/12/19 03:55:47;;;;;;;1.83;1.30;;;;;;;;;;5059022;27;92785;-54
2022/12/19 03:58:17;;;;;;;1.50;1.03;;;;;;;;;;5058900;27;92056;-54
2022/12/19 04:00:47;;;;;;;0.80;0.80;;;;;;;;;;5059485;27;92056;-55
2022/12/19 04:03:17;;;;;;;1.27;1.00;;;;;;;;;;5044241;27;93325;-55
2022/12/19 04:05:45;;;;;;;1.30;1.07;;;;;;;;;;5039326;27;93803;-54
2022/12/19 04:08:14;;;;;;;1.13;0.80;;;;;;;;;;5038991;27;92024;-55
2022/12/19 04:10:43;;;;;;;1.00;0.90;;;;;;;;;;5046179;27;92065;-54
2022/12/19 04:13:13;;;;;;;1.90;1.23;;;;;;;;;;5051166;27;95325;-55
2022/12/19 04:15:43;;;;;;;0.97;0.80;;;;;;;;;;5048066;27;92704;-54
2022/12/19 04:18:11;;;;;;;0.80;0.80;;;;;;;;;;5049382;27;94021;-55
2022/12/19 04:20:41;;;;;;;0.57;0.53;;;;;;;;;;5037899;27;92038;-55
2022/12/19 04:23:12;;;;;;;0.63;0.63;;;;;;;;;;5037594;27;94262;-54
2022/12/19 04:25:41;;;;;;;1.07;1.00;;;;;;;;;;5051237;27;94041;-54
2022/12/19 04:28:10;;;;;;;0.77;0.77;;;;;;;;;;5056708;27;91988;-54
2022/12/19 04:30:38;;;;;;;1.03;0.70;;;;;;;;;;5043454;27;91316;-55
2022/12/19 04:33:07;;;;;;;1.17;1.07;;;;;;;;;;5056545;27;93288;-55
2022/12/19 04:35:35;;;;;;;0.70;0.70;;;;;;;;;;5058180;27;92966;-55
2022/12/19 04:38:05;;;;;;;0.93;0.77;;;;;;;;;;5057830;27;92957;-55
2022/12/19 04:40:35;;;;;;;0.90;0.70;;;;;;;;;;5056661;27;92077;-55
2022/12/19 04:43:08;;;;;;;0.73;0.73;;;;;;;;;;5040129;27;93069;-55
2022/12/19 04:45:37;;;;;;;1.43;0.93;;;;;;;;;;5038397;27;92796;-55
2022/12/19 04:48:05;;;;;;;0.70;0.70;;;;;;;;;;5038893;27;92043;-55
2022/12/19 04:50:36;;;;;;;1.00;1.00;;;;;;;;;;5051180;27;92183;-55
2022/12/19 04:53:08;;;;;;;0.80;0.80;;;;;;;;;;5056073;27;94068;-55
2022/12/19 04:55:36;;;;;;;1.50;0.97;;;;;;;;;;5060616;27;92710;-54
2022/12/19 04:58:05;;;;;;;0.80;0.80;;;;;;;;;;5061787;27;92049;-55
2022/12/19 05:00:33;;;;;;;0.97;0.90;;;;;;;;;;5058144;27;92136;-55
2022/12/19 05:03:02;;;;;;;0.90;0.60;;;;;;;;;;5041556;27;94095;-54
2022/12/19 05:05:30;;;;;;;1.50;0.50;;;;;;;;;;5041661;27;93709;-55
2022/12/19 05:07:58;;;;;;;1.03;0.77;;;;;;;;;;5042212;27;92087;-54
2022/12/19 05:10:28;;;;;;;0.60;0.60;;;;;;;;;;5043020;27;91845;-54
2022/12/19 05:12:56;;;;;;;0.87;0.77;;;;;;;;;;5058515;27;94254;-54
2022/12/19 05:15:24;;;;;;;0.73;0.70;;;;;;;;;;5051870;27;93891;-54
2022/12/19 05:17:53;;;;;;;1.10;0.80;;;;;;;;;;5050504;27;92198;-54
2022/12/19 05:20:21;;;;;;;2.07;0.90;;;;;;;;;;5062197;27;91442;-54
2022/12/19 05:22:49;;;;;;;0.90;0.90;;;;;;;;;;5060998;27;93120;-54
2022/12/19 05:25:18;;;;;;;1.30;0.80;;;;;;;;;;5046607;27;93881;-54
2022/12/19 05:27:47;;;;;;;0.40;0.40;;;;;;;;;;5041029;27;92905;-54
2022/12/19 05:30:16;;;;;;;1.03;0.70;;;;;;;;;;5047874;27;91901;-55
2022/12/19 05:32:44;;;;;;;1.17;0.80;;;;;;;;;;5061193;27;92870;-54
2022/12/19 05:35:12;;;;;;;0.50;0.50;;;;;;;;;;5061487;27;92950;-54
2022/12/19 05:37:41;;;;;;;1.10;0.90;;;;;;;;;;5061898;27;92049;-55
2022/12/19 05:40:10;;;;;;;1.00;0.70;;;;;;;;;;5060047;27;91991;-54
2022/12/19 05:42:38;;;;;;;1.40;1.07;;;;;;;;;;5059707;27;93236;-54
2022/12/19 05:45:08;;;;;;;1.67;0.90;;;;;;;;;;5044510;27;93822;-55
2022/12/19 05:47:37;;;;;;;0.87;0.80;;;;;;;;;;5041393;27;92080;-54
2022/12/19 05:50:05;;;;;;;0.60;0.60;;;;;;;;;;5041239;27;92061;-55
2022/12/19 05:52:34;;;;;;;0.93;0.80;;;;;;;;;;5041110;27;95109;-54
2022/12/19 05:55:02;;;;;;;0.87;0.73;;;;;;;;;;5040838;27;93925;-54
2022/12/19 05:57:30;;;;;;;1.23;0.83;;;;;;;;;;5041243;27;92174;-54
2022/12/19 05:59:58;;;;;;;0.63;0.60;;;;;;;;;;5040409;27;92142;-55
2022/12/19 06:02:28;;;;;;;0.73;0.50;;;;;;;;;;5040573;27;93306;-54
2022/12/19 06:04:57;;;;;;;0.70;0.70;;;;;;;;;;5040733;27;93851;-55
2022/12/19 06:07:25;;;;;;;0.97;0.70;;;;;;;;;;5040921;27;92041;-54
2022/12/19 06:09:53;;;;;;;0.70;0.70;;;;;;;;;;5041988;27;91306;-55
2022/12/19 06:12:21;;;;;;;1.07;0.63;;;;;;;;;;5042534;27;93183;-55
2022/12/19 06:14:50;;;;;;;0.77;0.77;;;;;;;;;;5053050;27;94108;-55
2022/12/19 06:17:18;;;;;;;0.50;0.50;;;;;;;;;;5059404;27;92899;-54
2022/12/19 06:19:48;;;;;;;0.30;0.30;;;;;;;;;;5041259;27;92113;-54
2022/12/19 06:22:16;;;;;;;0.70;0.60;;;;;;;;;;5047542;27;94111;-54
2022/12/19 06:24:44;;;;;;;0.60;0.60;;;;;;;;;;5052879;27;93895;-54
2022/12/19 06:27:13;;;;;;;1.33;0.70;;;;;;;;;;5044716;27;92112;-55
2022/12/19 06:29:41;;;;;;;0.97;0.83;;;;;;;;;;5054989;27;93058;-54
2022/12/19 06:32:09;;;;;;;1.60;0.60;;;;;;;;;;5058870;27;94006;-55
2022/12/19 06:34:37;;;;;;;0.50;0.50;;;;;;;;;;5044842;27;92817;-55
2022/12/19 06:37:27;;;;;;;0.60;0.60;;;;;;;;;;5053162;27;92374;-54
2022/12/19 06:39:56;;;;;;;0.70;0.60;;;;;;;;;;5060388;27;92102;-55
2022/12/19 06:42:23;;;;;;;0.73;0.60;;;;;;;;;;5058154;27;94572;-55
2022/12/19 06:44:52;;;;;;;0.90;0.70;;;;;;;;;;5057367;27;94784;-54
2022/12/19 06:47:21;;;;;;;0.70;0.70;;;;;;;;;;5050834;27;93105;-54
2022/12/19 06:49:50;;;;;;;0.80;0.80;;;;;;;;;;5049401;27;92031;-55
2022/12/19 06:52:18;;;;;;;0.70;0.60;;;;;;;;;;5040423;27;93343;-54
2022/12/19 06:54:48;;;;;;;0.70;0.70;;;;;;;;;;5054272;27;92755;-54
2022/12/19 06:57:16;;;;;;;0.87;0.70;;;;;;;;;;5059493;27;91978;-55
2022/12/19 06:59:45;;;;;;;1.47;0.90;;;;;;;;;;5060952;27;91321;-55
2022/12/19 07:02:18;;;;;;;0.53;0.53;;;;;;;;;;5059472;27;92828;-55
2022/12/19 07:04:46;;;;;;;0.57;0.57;;;;;;;;;;5059029;27;93899;-55
2022/12/19 07:07:15;;;;;;;0.90;0.73;;;;;;;;;;5059585;27;92968;-54
2022/12/19 07:09:43;;;;;;;0.57;0.57;;;;;;;;;;5050050;27;92960;-55
2022/12/19 07:12:13;;;;;;;1.30;0.87;;;;;;;;;;5041778;27;93271;-54
2022/12/19 07:14:41;;;;;;;0.90;0.50;;;;;;;;;;5039799;27;96938;-56
2022/12/19 07:17:11;;;;;;;0.67;0.63;;;;;;;;;;5051177;27;92035;-54
2022/12/19 07:19:39;;;;;;;0.70;0.70;;;;;;;;;;5049933;27;92193;-54
2022/12/19 07:22:08;;;;;;;0.47;0.47;;;;;;;;;;5045163;27;94487;-55
2022/12/19 07:24:36;;;;;;;0.70;0.63;;;;;;;;;;5059760;27;93836;-54
2022/12/19 07:27:05;;;;;;;0.40;0.40;;;;;;;;;;5046366;27;92020;-55
2022/12/19 07:29:35;;;;;;;0.60;0.60;;;;;;;;;;5058271;27;92634;-54
2022/12/19 07:32:03;;;;;;;0.77;0.57;;;;;;;;;;5058709;27;95068;-54
2022/12/19 07:34:31;;;;;;;0.73;0.53;;;;;;;;;;5057459;27;93686;-54
2022/12/19 07:37:00;;;;;;;0.50;0.50;;;;;;;;;;5055168;27;92085;-54
2022/12/19 07:39:28;;;;;;;0.67;0.67;;;;;;;;;;5039615;27;91993;-54
2022/12/19 07:41:56;;;;;;;0.53;0.53;;;;;;;;;;5040100;27;94087;-55
2022/12/19 07:44:25;;;;;;;1.40;1.00;;;;;;;;;;5038913;27;92911;-54
2022/12/19 07:46:54;;;;;;;0.87;0.70;;;;;;;;;;5040492;27;92072;-55
2022/12/19 07:49:23;;;;;;;0.93;0.63;;;;;;;;;;5052826;27;91188;-55
2022/12/19 07:51:51;;;;;;;0.80;0.77;;;;;;;;;;5045473;27;92921;-55
2022/12/19 07:54:19;;;;;;;0.93;0.77;;;;;;;;;;5039703;27;92967;-55
2022/12/19 07:56:48;;;;;;;0.50;0.33;;;;;;;;;;5055249;27;92752;-54
2022/12/19 07:59:16;;;;;;;0.50;0.50;;;;;;;;;;5039183;27;91911;-55
2022/12/19 08:01:45;;;;;;;1.27;0.57;;;;;;;;;;5039640;27;94202;-55
2022/12/19 08:04:14;;;;;;;0.60;0.60;;;;;;;;;;5045212;27;92835;-55
2022/12/19 08:06:44;;;;;;;0.90;0.80;;;;;;;;;;5058164;27;92219;-55
2022/12/19 08:09:13;;;;;;;0.30;0.30;;;;;;;;;;5058046;27;92129;-55
2022/12/19 08:11:41;;;;;;;1.57;0.90;;;;;;;;;;5054464;27;93148;-55
2022/12/19 08:14:09;;;;;;;0.43;0.43;;;;;;;;;;5040166;27;92762;-55
2022/12/19 08:16:38;;;;;;;0.60;0.60;;;;;;;;;;5037444;27;92604;-55
2022/12/19 08:19:27;;;;;;;0.87;0.63;;;;;;;;;;5036576;27;92535;-54
2022/12/19 08:21:56;;;;;;;0.53;0.40;;;;;;;;;;5036680;28;95188;-54
2022/12/19 08:24:24;;;;;;;0.90;0.60;;;;;;;;;;5037244;28;94799;-55
2022/12/19 08:26:52;;;;;;;0.70;0.60;;;;;;;;;;5036976;27;92086;-54
2022/12/19 08:29:21;;;;;;;0.70;0.70;;;;;;;;;;5039449;27;92087;-57
2022/12/19 08:31:49;;;;;;;0.40;0.40;;;;;;;;;;5040848;28;93305;-54
2022/12/19 08:34:18;;;;;;;0.63;0.63;;;;;;;;;;5041106;27;92945;-55
2022/12/19 08:36:47;;;;;;;0.60;0.60;;;;;;;;;;5041590;27;92148;-55
2022/12/19 08:39:16;;;;;;;10.80;0.87;;;;;;;;;;5041255;27;91436;-55
2022/12/19 08:41:44;;;;;;;0.53;0.53;;;;;;;;;;5040227;27;93454;-55
2022/12/19 08:44:12;;;;;;;0.50;0.50;;;;;;;;;;5040905;28;93898;-55
2022/12/19 08:46:41;;;;;;;2.77;0.70;;;;;;;;;;5041136;28;93012;-54
2022/12/19 08:49:17;;;;;;;0.73;0.50;;;;;;;;;;5041102;27;92088;-55
2022/12/19 08:51:45;;;;;;;0.70;0.70;;;;;;;;;;5040445;27;94248;-55
2022/12/19 08:54:15;;;;;;;0.57;0.40;;;;;;;;;;5040764;27;92835;-55
2022/12/19 08:56:43;;;;;;;0.47;0.47;;;;;;;;;;5040893;27;92141;-54
2022/12/19 08:59:14;;;;;;;0.50;0.50;;;;;;;;;;5040577;28;92167;-55
2022/12/19 09:01:57;;;;;;;0.40;0.40;;;;;;;;;;5039605;27;93104;-55
2022/12/19 09:04:26;;;;;;;0.30;0.30;;;;;;;;;;5040360;27;93751;-54
2022/12/19 09:07:15;;;;;;;0.70;0.70;;;;;;;;;;5040267;28;91965;-54
2022/12/19 09:09:45;;;;;;;0.40;0.40;;;;;;;;;;5040666;27;92284;-54
2022/12/19 09:12:13;;;;;;;0.40;0.40;;;;;;;;;;5039621;28;95326;-55
2022/12/19 09:14:42;;;;;;;0.53;0.53;;;;;;;;;;5040310;27;93894;-54
2022/12/19 09:17:11;;;;;;;1.03;0.73;;;;;;;;;;5040786;28;91985;-54
2022/12/19 09:19:40;;;;;;;1.13;0.90;;;;;;;;;;5040700;27;92069;-55
2022/12/19 09:22:15;;;;;;;2.20;0.80;;;;;;;;;;5039943;27;93226;-54
2022/12/19 09:24:45;;;;;;;0.90;0.80;;;;;;;;;;5040160;27;93805;-55
2022/12/19 09:27:13;;;;;;;0.50;0.50;;;;;;;;;;5040246;28;92304;-55
2022/12/19 09:29:42;;;;;;;0.50;0.50;;;;;;;;;;5041014;27;91346;-55
2022/12/19 09:32:11;;;;;;;0.33;0.33;;;;;;;;;;5040616;27;94087;-55
2022/12/19 09:34:39;;;;;;;0.30;0.30;;;;;;;;;;5039889;28;94054;-54
2022/12/19 09:37:08;;;;;;;0.50;0.50;;;;;;;;;;5040373;27;93007;-55
2022/12/19 09:39:47;;;;;;;1.03;0.80;;;;;;;;;;5039667;27;92098;-55
2022/12/19 09:42:22;;;;;;;0.73;0.73;;;;;;;;;;5038762;27;94103;-54
2022/12/19 09:44:57;;;;;;;0.60;0.60;;;;;;;;;;5039996;28;94015;-55
2022/12/19 09:47:27;;;;;;;0.70;0.70;;;;;;;;;;5039995;27;92044;-55
2022/12/19 09:49:55;;;;;;;0.53;0.53;;;;;;;;;;5039939;28;92074;-55
2022/12/19 09:52:25;;;;;;;0.53;0.53;;;;;;;;;;5039171;28;94089;-54
2022/12/19 09:55:03;;;;;;;0.63;0.43;;;;;;;;;;5039813;27;93982;-54
2022/12/19 09:57:34;;;;;;;1.23;0.70;;;;;;;;;;5039811;27;92122;-55
2022/12/19 10:00:03;;;;;;;0.53;0.53;;;;;;;;;;5039970;27;92130;-54
2022/12/19 10:02:34;;;;;;;0.90;0.90;;;;;;;;;;5039016;27;94054;-54
2022/12/19 10:05:07;;;;;;;0.70;0.60;;;;;;;;;;5039211;27;93697;-54
2022/12/19 10:07:56;;;;;;;0.83;0.83;;;;;;;;;;5039608;28;91984;-55
2022/12/19 10:10:40;;;;;;;0.70;0.70;;;;;;;;;;5039377;27;92081;-54
2022/12/19 10:13:32;;;;;;;0.77;0.70;;;;;;;;;;5039064;28;95235;-55
2022/12/19 10:16:01;;;;;;;0.60;0.60;;;;;;;;;;5039240;27;92825;-54
2022/12/19 10:18:36;;;;;;;1.37;0.80;;;;;;;;;;5039752;27;92195;-55
2022/12/19 10:21:05;;;;;;;0.67;0.67;;;;;;;;;;5039900;27;91469;-54
2022/12/19 10:23:41;;;;;;;1.00;0.90;;;;;;;;;;5038737;28;94148;-54
2022/12/19 10:26:13;;;;;;;0.90;0.73;;;;;;;;;;5038715;28;93902;-54
2022/12/19 10:28:46;;;;;;;0.60;0.60;;;;;;;;;;5038616;28;93066;-57
2022/12/19 10:31:17;;;;;;;0.53;0.53;;;;;;;;;;5039390;27;92234;-55
2022/12/19 10:33:50;;;;;;;0.60;0.60;;;;;;;;;;5038885;28;94202;-55
2022/12/19 10:36:19;;;;;;;1.20;0.70;;;;;;;;;;5038915;27;92753;-55
2022/12/19 10:38:48;;;;;;;2.73;0.47;;;;;;;;;;5039185;27;92069;-55
2022/12/19 10:41:21;;;;;;;0.77;0.77;;;;;;;;;;5038942;27;92023;-55
2022/12/19 10:43:52;;;;;;;0.43;0.43;;;;;;;;;;5038711;28;93025;-54
2022/12/19 10:46:22;;;;;;;0.73;0.70;;;;;;;;;;5038722;27;94022;-54
2022/12/19 10:48:51;;;;;;;0.60;0.60;;;;;;;;;;5038917;27;92047;-54
2022/12/19 10:51:22;;;;;;;0.60;0.60;;;;;;;;;;5037967;27;91988;-54
2022/12/19 10:53:53;;;;;;;1.00;0.90;;;;;;;;;;5037329;27;95150;-55
2022/12/19 10:56:24;;;;;;;1.40;0.87;;;;;;;;;;5038505;27;94972;-54
2022/12/19 10:59:00;;;;;;;0.60;0.60;;;;;;;;;;5038593;27;92091;-55
2022/12/19 11:01:30;;;;;;;1.10;0.73;;;;;;;;;;5038480;27;92107;-55
2022/12/19 11:04:13;;;;;;;2.03;1.53;;;;;;;;;;5038598;27;94125;-54
2022/12/19 11:06:46;;;;;;;1.00;0.80;;;;;;;;;;5038436;27;92916;-55
2022/12/19 11:09:22;;;;;;;0.93;0.90;;;;;;;;;;5038897;27;92054;-54
2022/12/19 11:11:57;;;;;;;1.57;0.77;;;;;;;;;;5038777;27;91394;-55
2022/12/19 11:14:50;;;;;;;0.60;0.60;;;;;;;;;;5038416;27;92153;-55
2022/12/19 11:17:39;;;;;;;0.70;0.70;;;;;;;;;;5038028;28;94413;-54
2022/12/19 11:20:27;;;;;;;1.13;0.80;;;;;;;;;;5037965;27;92999;-54
2022/12/19 11:23:15;;;;;;;0.37;0.37;;;;;;;;;;5037988;27;92072;-54
2022/12/19 11:26:04;;;;;;;1.60;0.80;;;;;;;;;;5037695;27;92682;-54
2022/12/19 11:28:54;;;;;;;0.73;0.70;;;;;;;;;;5038046;28;95177;-55
2022/12/19 11:31:42;;;;;;;0.70;0.63;;;;;;;;;;5038607;27;92027;-54
2022/12/19 11:34:31;;;;;;;1.10;1.00;;;;;;;;;;5038051;28;92099;-54
2022/12/19 11:37:01;;;;;;;1.03;0.90;;;;;;;;;;5038200;27;94423;-54
2022/12/19 11:39:33;;;;;;;0.87;0.80;;;;;;;;;;5038276;28;93820;-54
2022/12/19 11:42:01;;;;;;;0.47;0.47;;;;;;;;;;5038576;28;91997;-55
2022/12/19 11:44:33;;;;;;;2.33;0.83;;;;;;;;;;5038163;28;92079;-54
2022/12/19 11:47:04;;;;;;;0.80;0.80;;;;;;;;;;5037043;27;95136;-54
2022/12/19 11:49:33;;;;;;;0.77;0.77;;;;;;;;;;5037991;28;94855;-54
2022/12/19 11:52:06;;;;;;;1.07;0.97;;;;;;;;;;5038078;27;92068;-54
2022/12/19 11:54:51;;;;;;;2.13;1.13;;;;;;;;;;5037904;27;92055;-54
2022/12/19 11:57:20;;;;;;;1.77;1.37;;;;;;;;;;5037269;27;93220;-54
2022/12/19 11:59:50;;;;;;;1.13;1.03;;;;;;;;;;5038017;27;92818;-54
2022/12/19 12:02:33;;;;;;;1.90;0.90;;;;;;;;;;5038140;28;92166;-54
2022/12/19 12:05:04;;;;;;;2.53;0.93;;;;;;;;;;5035734;28;91972;-55
2022/12/19 12:07:33;;;;;;;1.30;0.87;;;;;;;;;;5037407;27;94367;-54
2022/12/19 12:10:21;;;;;;;1.23;1.10;;;;;;;;;;5037977;27;92589;-55
2022/12/19 12:13:11;;;;;;;2.23;1.37;;;;;;;;;;5037344;27;93006;-54
2022/12/19 12:16:01;;;;;;;1.53;1.40;;;;;;;;;;5038007;27;92060;-54
2022/12/19 12:18:53;;;;;;;1.30;1.20;;;;;;;;;;5037771;27;92646;-54
2022/12/19 12:21:43;;;;;;;1.57;1.20;;;;;;;;;;5037112;28;92515;-54
2022/12/19 12:24:35;;;;;;;1.27;1.17;;;;;;;;;;5037497;27;92402;-55
2022/12/19 12:27:29;;;;;;;4.70;1.67;;;;;;;;;;5037419;27;92061;-55
2022/12/19 12:30:18;;;;;;;3.43;1.20;;;;;;;;;;5037367;27;92772;-54
2022/12/19 12:33:09;;;;;;;3.80;1.17;;;;;;;;;;5037613;28;91403;-55
2022/12/19 12:35:58;;;;;;;1.40;1.23;;;;;;;;;;5037763;27;92114;-54
2022/12/19 12:38:50;;;;;;;2.67;1.20;;;;;;;;;;5037733;28;92076;-54
2022/12/19 12:41:20;;;;;;;0.93;0.93;;;;;;;;;;5036806;27;94873;-55
2022/12/19 12:43:52;;;;;;;1.07;1.00;;;;;;;;;;5037279;27;93724;-54
2022/12/19 12:46:22;;;;;;;1.10;1.00;;;;;;;;;;5037863;28;92184;-54
2022/12/19 12:48:54;;;;;;;1.03;0.93;;;;;;;;;;5037317;28;92034;-55
2022/12/19 12:51:22;;;;;;;5.03;1.27;;;;;;;;;;5036609;27;92378;-54
2022/12/19 12:53:51;;;;;;;1.07;0.90;;;;;;;;;;5037085;28;93920;-55
2022/12/19 12:56:19;;;;;;;1.00;0.90;;;;;;;;;;5037521;27;91974;-54
2022/12/19 12:59:02;;;;;;;1.40;1.23;;;;;;;;;;5037869;28;91391;-55
2022/12/19 13:01:33;;;;;;;1.03;0.90;;;;;;;;;;5036537;28;94238;-55
2022/12/19 13:04:05;;;;;;;1.10;0.80;;;;;;;;;;5036584;27;92868;-54
2022/12/19 13:06:34;;;;;;;1.10;0.90;;;;;;;;;;5036671;27;93009;-54
2022/12/19 13:09:03;;;;;;;3.10;1.20;;;;;;;;;;5036685;27;92080;-54
2022/12/19 13:14:46;;;;;;;2.10;1.27;;;;;;;;;;5036580;27;92791;-54
2022/12/19 13:17:18;;;;;;;2.70;1.10;;;;;;;;;;5040608;28;92149;-54
2022/12/19 13:19:55;;;;;;;1.93;1.30;;;;;;;;;;5040418;27;92048;-55
2022/12/19 13:22:24;;;;;;;1.10;1.00;;;;;;;;;;5039997;27;93323;-54
2022/12/19 13:24:53;;;;;;;1.40;0.57;;;;;;;;;;5040360;28;93905;-54
2022/12/19 13:27:38;;;;;;;0.90;0.80;;;;;;;;;;5040765;27;92061;-54
2022/12/19 13:30:17;;;;;;;1.10;1.00;;;;;;;;;;5040416;27;92091;-54
2022/12/19 13:33:15;;;;;;;1.63;0.90;;;;;;;;;;5039303;28;95272;-55
2022/12/19 13:35:45;;;;;;;1.47;0.90;;;;;;;;;;4997588;28;93916;-54
2022/12/19 13:38:34;;;;;;;1.83;0.83;;;;;;;;;;5036987;27;92067;-55
2022/12/19 13:44:12;;;;;;;0.60;0.60;;;;;;;;;;5039776;28;93342;-54
2022/12/19 13:46:41;;;;;;;5.63;0.93;;;;;;;;;;5039959;28;93863;-54
2022/12/19 13:49:12;;;;;;;0.87;0.67;;;;;;;;;;5040614;27;91976;-54
2022/12/19 13:51:45;;;;;;;1.87;1.23;;;;;;;;;;5040034;27;91289;-54
2022/12/19 13:54:21;;;;;;;0.60;0.60;;;;;;;;;;5039608;28;94401;-54
2022/12/19 13:56:50;;;;;;;1.33;1.13;;;;;;;;;;5039516;27;92479;-54
2022/12/19 13:59:18;;;;;;;1.07;0.83;;;;;;;;;;5039930;28;93090;-54
2022/12/19 14:01:46;;;;;;;1.07;0.97;;;;;;;;;;5039742;28;92074;-54
2022/12/19 14:04:23;;;;;;;0.83;0.83;;;;;;;;;;5039741;27;95552;-54
2022/12/19 14:06:55;;;;;;;1.37;0.83;;;;;;;;;;5039560;28;93836;-54
2022/12/19 14:09:24;;;;;;;1.57;0.83;;;;;;;;;;5040201;27;92084;-54
2022/12/19 14:15:12;;;;;;;2.10;0.97;;;;;;;;;;5039091;27;92056;-55
2022/12/19 14:15:22;;;;;;;0.90;0.90;;;;;;;;;;5039241;27;92731;-54
2022/12/19 14:17:50;;;;;;;1.07;0.70;;;;;;;;;;5039436;27;91653;-54
2022/12/19 14:20:19;;;;;;;0.80;0.80;;;;;;;;;;5039319;27;91996;-55
2022/12/19 14:23:10;;;;;;;2.10;0.90;;;;;;;;;;5038497;27;92108;-54
2022/12/19 14:25:39;;;;;;;1.17;0.77;;;;;;;;;;5038160;28;95189;-54
2022/12/19 14:28:28;;;;;;;0.50;0.50;;;;;;;;;;5038105;27;95366;-54
2022/12/19 14:30:59;;;;;;;0.63;0.63;;;;;;;;;;5039163;28;92136;-54
2022/12/19 14:33:29;;;;;;;0.80;0.80;;;;;;;;;;5039042;27;92207;-55
2022/12/19 14:36:20;;;;;;;1.27;0.93;;;;;;;;;;5038778;27;92726;-54
2022/12/19 14:38:55;;;;;;;0.80;0.80;;;;;;;;;;5039068;27;93914;-54
2022/12/19 14:44:46;;;;;;;1.17;0.70;;;;;;;;;;5039503;28;91360;-55
2022/12/19 14:47:35;;;;;;;0.93;0.90;;;;;;;;;;5038935;27;92743;-56
2022/12/19 14:50:27;;;;;;;1.47;1.03;;;;;;;;;;5039167;27;93161;-54
2022/12/19 14:53:16;;;;;;;1.23;1.00;;;;;;;;;;5038207;27;93095;-55
2022/12/19 14:56:06;;;;;;;0.73;0.73;;;;;;;;;;5038574;27;92058;-56
2022/12/19 14:58:56;;;;;;;0.70;0.70;;;;;;;;;;5038164;28;92950;-55
2022/12/19 15:01:25;;;;;;;1.77;1.00;;;;;;;;;;5038158;28;93908;-54
2022/12/19 15:03:55;;;;;;;0.77;0.70;;;;;;;;;;5038947;28;92131;-56
2022/12/19 15:06:44;;;;;;;1.03;0.70;;;;;;;;;;5038536;27;92164;-56
2022/12/19 15:09:32;;;;;;;0.90;0.90;;;;;;;;;;5038513;27;95163;-55
2022/12/19 15:15:37;;;;;;;0.90;0.80;;;;;;;;;;5038671;28;92025;-55
2022/12/19 15:18:16;;;;;;;0.90;0.90;;;;;;;;;;5038717;27;92098;-55
2022/12/19 15:20:44;;;;;;;2.10;1.17;;;;;;;;;;5038055;27;95108;-55
2022/12/19 15:23:12;;;;;;;1.37;0.80;;;;;;;;;;5037353;27;93732;-56
2022/12/19 15:25:49;;;;;;;0.87;0.87;;;;;;;;;;5038964;27;92138;-56
2022/12/19 15:28:39;;;;;;;0.90;0.90;;;;;;;;;;5038606;28;92017;-55